Monday, October 16, 2017, 11:50 PM EDT
Back to Local

KMTP, Montauk Airport

Location: Montauk, NY, United States Lat: 41.067
Local Time: 11:50 PM EDT ( 3:50 GMT) Lon: -71.917
Time Zone: US/Eastern Elev: 6 ft

Show me the last for .
Show Coded

Time T Td Feel RH Dir Speed Gust Alt SLP Vis Weather Sky Remarks
2017-10-16 22:54 53 40 - 60 350° 13 23 30.16 30.16 0 None
2017-10-16 21:54 53 40 - 60 350° 14 23 30.14 30.13 0 None
2017-10-16 20:54 54 42 - 64 330° 16 23 30.11 30.11 0 None
2017-10-16 19:54 55 41 - 59 340° 13 22 30.10 30.09 0 6-hr Min Temp (8pm): 55.0°F
6-hr Max Temp (8pm): 57.0°F
2017-10-16 18:54 56 42 - 59 350° 17 24 30.06 30.06 0 None
2017-10-16 17:54 56 43 - 61 340° 12 - 30.03 30.02 0 None
2017-10-16 16:54 56 44 - 64 330° 12 20 30.00 30.00 0 None
2017-10-16 14:54 57 45 - 63 330° 13 - 29.97 29.96 0 None
2017-10-16 13:54 57 45 - 63 330° 10 - 29.96 29.96 0 6-hr Min Temp (2pm): 57.0°F
6-hr Max Temp (2pm): 62.1°F
2017-10-16 12:54 58 46 - 64 330° 12 - 29.98 29.97 0 None
2017-10-16 11:54 59 45 - 59 320° 9 - 29.96 29.96 0 None
2017-10-16 10:54 60 46 - 59 330° 13 21 29.97 29.97 0 None
2017-10-16 09:54 60 48 - 64 330° 12 - 29.96 29.96 0 None
2017-10-16 08:54 61 48 - 62 340° 14 - 29.92 29.92 0 None
2017-10-16 07:54 62 54 - 74 320° 10 - 29.89 29.88 0 6-hr Min Temp (8am): 61.0°F
6-hr Max Temp (8am): 69.1°F
2017-10-16 06:54 65 59 - 81 330° 8 - 29.85 29.85 0 None
2017-10-16 05:54 67 59 - 75 300° 9 - 29.83 29.82 0 None
2017-10-16 04:54 68 63 - 83 290° 8 - 29.81 29.80 0 None
2017-10-16 03:54 68 67 - 96 250° 8 - 29.79 29.79 0 None
2017-10-16 02:54 68 67 - 96 220° 7 - 29.79 29.79 0 None
2017-10-16 01:54 67 66 - 96 250° 10 18 29.83 29.83 0 6-hr Min Temp (2am): 66.9°F
6-hr Max Temp (2am): 66.9°F
2017-10-16 00:54 67 66 - 96 230° 9 22 29.82 29.81 0 24-hr Min Temp (1am): 63.0°F
24-hr Max Temp (1am): 70.0°F
2017-10-15 23:54 67 66 - 96 230° 13 23 29.82 29.82 0 None

Support USWX by starting your Amazon purchase here.